sensor_id;sensor_type;location;lat;lon;timestamp;temperature;humidity
7958;DHT22;4024;52.172;5.378;2023-05-10T00:01:29;16.30;99.90
7958;DHT22;4024;52.172;5.378;2023-05-10T00:03:54;16.30;99.90
7958;DHT22;4024;52.172;5.378;2023-05-10T00:06:20;16.20;99.90
7958;DHT22;4024;52.172;5.378;2023-05-10T00:08:45;16.20;99.90
7958;DHT22;4024;52.172;5.378;2023-05-10T00:11:11;16.20;99.90
7958;DHT22;4024;52.172;5.378;2023-05-10T00:13:38;16.20;99.90
7958;DHT22;4024;52.172;5.378;2023-05-10T00:16:04;16.20;99.90
7958;DHT22;4024;52.172;5.378;2023-05-10T00:18:30;16.20;99.90
7958;DHT22;4024;52.172;5.378;2023-05-10T00:20:56;16.20;99.90
7958;DHT22;4024;52.172;5.378;2023-05-10T00:23:21;16.20;99.90
7958;DHT22;4024;52.172;5.378;2023-05-10T00:25:47;16.20;99.90
7958;DHT22;4024;52.172;5.378;2023-05-10T00:28:13;16.20;99.90
7958;DHT22;4024;52.172;5.378;2023-05-10T00:30:39;16.20;99.90
7958;DHT22;4024;52.172;5.378;2023-05-10T00:33:05;16.20;99.90
7958;DHT22;4024;52.172;5.378;2023-05-10T00:35:30;16.20;99.90
7958;DHT22;4024;52.172;5.378;2023-05-10T00:37:56;16.20;99.90
7958;DHT22;4024;52.172;5.378;2023-05-10T00:40:21;16.20;99.90
7958;DHT22;4024;52.172;5.378;2023-05-10T00:42:47;16.20;99.90
7958;DHT22;4024;52.172;5.378;2023-05-10T00:45:12;16.10;99.90
7958;DHT22;4024;52.172;5.378;2023-05-10T00:47:38;16.20;99.90
7958;DHT22;4024;52.172;5.378;2023-05-10T00:50:05;16.10;99.90
7958;DHT22;4024;52.172;5.378;2023-05-10T00:52:31;16.10;99.90
7958;DHT22;4024;52.172;5.378;2023-05-10T00:54:57;16.10;99.90
7958;DHT22;4024;52.172;5.378;2023-05-10T00:57:24;16.10;99.90
7958;DHT22;4024;52.172;5.378;2023-05-10T00:59:50;16.10;99.90
7958;DHT22;4024;52.172;5.378;2023-05-10T01:02:16;16.10;99.90
7958;DHT22;4024;52.172;5.378;2023-05-10T01:04:43;16.10;99.90
7958;DHT22;4024;52.172;5.378;2023-05-10T01:07:08;16.10;99.90
7958;DHT22;4024;52.172;5.378;2023-05-10T01:09:34;16.10;99.90
7958;DHT22;4024;52.172;5.378;2023-05-10T01:12:01;16.20;99.90
7958;DHT22;4024;52.172;5.378;2023-05-10T01:14:27;16.20;99.90
7958;DHT22;4024;52.172;5.378;2023-05-10T01:16:53;16.10;99.90
7958;DHT22;4024;52.172;5.378;2023-05-10T01:19:24;15.90;99.90
7958;DHT22;4024;52.172;5.378;2023-05-10T01:27:35;16.10;99.90
7958;DHT22;4024;52.172;5.378;2023-05-10T01:38:27;16.10;99.90
7958;DHT22;4024;52.172;5.378;2023-05-10T01:43:32;16.00;99.90
7958;DHT22;4024;52.172;5.378;2023-05-10T01:46:14;16.00;99.90
7958;DHT22;4024;52.172;5.378;2023-05-10T01:48:49;16.10;99.90
7958;DHT22;4024;52.172;5.378;2023-05-10T01:51:23;16.00;99.90
7958;DHT22;4024;52.172;5.378;2023-05-10T01:53:49;16.00;99.90
7958;DHT22;4024;52.172;5.378;2023-05-10T01:56:19;16.10;99.90
7958;DHT22;4024;52.172;5.378;2023-05-10T01:58:50;16.10;99.90
7958;DHT22;4024;52.172;5.378;2023-05-10T02:01:19;16.00;99.90
7958;DHT22;4024;52.172;5.378;2023-05-10T02:03:46;16.10;99.90
7958;DHT22;4024;52.172;5.378;2023-05-10T02:06:18;16.00;99.90
7958;DHT22;4024;52.172;5.378;2023-05-10T02:08:45;16.10;99.90
7958;DHT22;4024;52.172;5.378;2023-05-10T02:11:13;16.10;99.90
7958;DHT22;4024;52.172;5.378;2023-05-10T02:13:39;16.10;99.90
7958;DHT22;4024;52.172;5.378;2023-05-10T02:16:07;16.00;99.90
7958;DHT22;4024;52.172;5.378;2023-05-10T02:18:34;16.00;99.90
7958;DHT22;4024;52.172;5.378;2023-05-10T02:21:02;16.00;99.90
7958;DHT22;4024;52.172;5.378;2023-05-10T02:23:29;16.00;99.90
7958;DHT22;4024;52.172;5.378;2023-05-10T02:25:57;16.00;99.90
7958;DHT22;4024;52.172;5.378;2023-05-10T02:28:24;15.90;99.90
7958;DHT22;4024;52.172;5.378;2023-05-10T02:30:51;15.90;99.90
7958;DHT22;4024;52.172;5.378;2023-05-10T02:33:18;15.90;99.90
7958;DHT22;4024;52.172;5.378;2023-05-10T02:35:46;15.90;99.90
7958;DHT22;4024;52.172;5.378;2023-05-10T02:38:13;15.90;99.90
7958;DHT22;4024;52.172;5.378;2023-05-10T02:40:41;16.00;99.90
7958;DHT22;4024;52.172;5.378;2023-05-10T02:43:11;15.90;99.90
7958;DHT22;4024;52.172;5.378;2023-05-10T02:45:38;15.90;99.90
7958;DHT22;4024;52.172;5.378;2023-05-10T02:48:05;15.90;99.90
7958;DHT22;4024;52.172;5.378;2023-05-10T02:50:33;15.90;99.90
7958;DHT22;4024;52.172;5.378;2023-05-10T02:53:06;15.90;99.90
7958;DHT22;4024;52.172;5.378;2023-05-10T02:55:40;16.00;99.90
7958;DHT22;4024;52.172;5.378;2023-05-10T02:58:06;15.90;99.90
7958;DHT22;4024;52.172;5.378;2023-05-10T03:00:32;16.00;99.90
7958;DHT22;4024;52.172;5.378;2023-05-10T03:02:58;15.90;99.90
7958;DHT22;4024;52.172;5.378;2023-05-10T03:05:24;15.90;99.90
7958;DHT22;4024;52.172;5.378;2023-05-10T03:07:50;15.90;99.90
7958;DHT22;4024;52.172;5.378;2023-05-10T03:10:17;15.90;99.90
7958;DHT22;4024;52.172;5.378;2023-05-10T03:13:06;15.80;99.90
7958;DHT22;4024;52.172;5.378;2023-05-10T03:16:06;15.80;99.90
7958;DHT22;4024;52.172;5.378;2023-05-10T03:19:13;15.80;99.90
7958;DHT22;4024;52.172;5.378;2023-05-10T03:21:31;15.80;99.90
7958;DHT22;4024;52.172;5.378;2023-05-10T03:24:01;15.90;99.90
7958;DHT22;4024;52.172;5.378;2023-05-10T03:26:28;15.80;99.90
7958;DHT22;4024;52.172;5.378;2023-05-10T03:28:55;15.80;99.90
7958;DHT22;4024;52.172;5.378;2023-05-10T03:31:21;15.60;99.90
7958;DHT22;4024;52.172;5.378;2023-05-10T03:33:48;15.80;99.90
7958;DHT22;4024;52.172;5.378;2023-05-10T03:36:13;15.70;99.90
7958;DHT22;4024;52.172;5.378;2023-05-10T03:38:39;15.60;99.90
7958;DHT22;4024;52.172;5.378;2023-05-10T03:41:05;15.70;99.90
7958;DHT22;4024;52.172;5.378;2023-05-10T03:43:31;15.70;99.90
7958;DHT22;4024;52.172;5.378;2023-05-10T03:45:57;15.70;99.90
7958;DHT22;4024;52.172;5.378;2023-05-10T03:48:22;15.70;99.90
7958;DHT22;4024;52.172;5.378;2023-05-10T03:50:48;15.70;99.90
7958;DHT22;4024;52.172;5.378;2023-05-10T03:53:15;15.70;99.90
7958;DHT22;4024;52.172;5.378;2023-05-10T03:55:40;15.70;99.90
7958;DHT22;4024;52.172;5.378;2023-05-10T03:58:06;15.70;99.90
7958;DHT22;4024;52.172;5.378;2023-05-10T04:00:33;15.70;99.90
7958;DHT22;4024;52.172;5.378;2023-05-10T04:02:58;15.70;99.90
7958;DHT22;4024;52.172;5.378;2023-05-10T04:05:24;15.60;99.90
7958;DHT22;4024;52.172;5.378;2023-05-10T04:07:50;15.70;99.90
7958;DHT22;4024;52.172;5.378;2023-05-10T04:10:16;15.70;99.90
7958;DHT22;4024;52.172;5.378;2023-05-10T04:12:42;15.70;99.90
7958;DHT22;4024;52.172;5.378;2023-05-10T04:15:08;15.70;99.90
7958;DHT22;4024;52.172;5.378;2023-05-10T04:17:33;15.70;99.90
7958;DHT22;4024;52.172;5.378;2023-05-10T04:19:59;15.70;99.90
7958;DHT22;4024;52.172;5.378;2023-05-10T04:22:25;15.70;99.90
7958;DHT22;4024;52.172;5.378;2023-05-10T04:24:50;15.70;99.90
7958;DHT22;4024;52.172;5.378;2023-05-10T04:27:16;15.70;99.90
7958;DHT22;4024;52.172;5.378;2023-05-10T04:29:41;15.70;99.90
7958;DHT22;4024;52.172;5.378;2023-05-10T04:32:08;15.70;99.90
7958;DHT22;4024;52.172;5.378;2023-05-10T04:34:35;15.70;99.90
7958;DHT22;4024;52.172;5.378;2023-05-10T04:37:01;15.70;99.90
7958;DHT22;4024;52.172;5.378;2023-05-10T04:39:27;15.70;99.90
7958;DHT22;4024;52.172;5.378;2023-05-10T04:41:52;15.70;99.90
7958;DHT22;4024;52.172;5.378;2023-05-10T04:44:18;15.70;99.90
7958;DHT22;4024;52.172;5.378;2023-05-10T04:46:43;15.70;99.90
7958;DHT22;4024;52.172;5.378;2023-05-10T04:49:09;15.70;99.90
7958;DHT22;4024;52.172;5.378;2023-05-10T04:51:35;15.70;99.90
7958;DHT22;4024;52.172;5.378;2023-05-10T04:54:00;15.70;99.90
7958;DHT22;4024;52.172;5.378;2023-05-10T04:56:26;15.70;99.90
7958;DHT22;4024;52.172;5.378;2023-05-10T04:58:51;15.80;99.90
7958;DHT22;4024;52.172;5.378;2023-05-10T05:01:17;15.70;99.90
7958;DHT22;4024;52.172;5.378;2023-05-10T05:03:42;15.70;99.90
7958;DHT22;4024;52.172;5.378;2023-05-10T05:06:08;15.80;99.90
7958;DHT22;4024;52.172;5.378;2023-05-10T05:08:33;15.80;99.90
7958;DHT22;4024;52.172;5.378;2023-05-10T05:10:59;15.80;99.90
7958;DHT22;4024;52.172;5.378;2023-05-10T05:13:25;15.80;99.90
7958;DHT22;4024;52.172;5.378;2023-05-10T05:15:50;15.80;99.90
7958;DHT22;4024;52.172;5.378;2023-05-10T05:18:16;15.90;99.90
7958;DHT22;4024;52.172;5.378;2023-05-10T05:20:41;15.70;99.90
7958;DHT22;4024;52.172;5.378;2023-05-10T05:23:07;15.80;99.90
7958;DHT22;4024;52.172;5.378;2023-05-10T05:25:32;15.90;99.90
7958;DHT22;4024;52.172;5.378;2023-05-10T05:27:58;15.80;99.90
7958;DHT22;4024;52.172;5.378;2023-05-10T05:30:24;15.80;99.90
7958;DHT22;4024;52.172;5.378;2023-05-10T05:32:49;15.80;99.90
7958;DHT22;4024;52.172;5.378;2023-05-10T05:35:15;15.80;99.90
7958;DHT22;4024;52.172;5.378;2023-05-10T05:37:40;15.80;99.90
7958;DHT22;4024;52.172;5.378;2023-05-10T05:40:06;15.80;99.90
7958;DHT22;4024;52.172;5.378;2023-05-10T05:42:32;15.80;99.90
7958;DHT22;4024;52.172;5.378;2023-05-10T05:44:58;15.80;99.90
7958;DHT22;4024;52.172;5.378;2023-05-10T05:47:24;15.80;99.90
7958;DHT22;4024;52.172;5.378;2023-05-10T05:49:50;15.90;99.90
7958;DHT22;4024;52.172;5.378;2023-05-10T05:52:15;15.80;99.90
7958;DHT22;4024;52.172;5.378;2023-05-10T05:54:41;15.80;99.90
7958;DHT22;4024;52.172;5.378;2023-05-10T05:57:06;15.80;99.90
7958;DHT22;4024;52.172;5.378;2023-05-10T05:59:32;15.80;99.90
7958;DHT22;4024;52.172;5.378;2023-05-10T06:01:58;15.80;99.90
7958;DHT22;4024;52.172;5.378;2023-05-10T06:04:24;15.90;99.90
7958;DHT22;4024;52.172;5.378;2023-05-10T06:06:49;15.80;99.90
7958;DHT22;4024;52.172;5.378;2023-05-10T06:09:15;15.80;99.90
7958;DHT22;4024;52.172;5.378;2023-05-10T06:11:41;15.80;99.90
7958;DHT22;4024;52.172;5.378;2023-05-10T06:14:06;15.80;99.90
7958;DHT22;4024;52.172;5.378;2023-05-10T06:16:34;15.80;99.90
7958;DHT22;4024;52.172;5.378;2023-05-10T06:19:00;15.80;99.90
7958;DHT22;4024;52.172;5.378;2023-05-10T06:21:25;15.70;99.90
7958;DHT22;4024;52.172;5.378;2023-05-10T06:23:51;15.60;99.90
7958;DHT22;4024;52.172;5.378;2023-05-10T06:26:16;15.70;99.90
7958;DHT22;4024;52.172;5.378;2023-05-10T06:28:42;15.60;99.90
7958;DHT22;4024;52.172;5.378;2023-05-10T06:31:08;15.70;99.90
7958;DHT22;4024;52.172;5.378;2023-05-10T06:33:34;15.70;99.90
7958;DHT22;4024;52.172;5.378;2023-05-10T06:35:59;15.70;99.90
7958;DHT22;4024;52.172;5.378;2023-05-10T06:38:25;15.70;99.90
7958;DHT22;4024;52.172;5.378;2023-05-10T06:40:51;15.70;99.90
7958;DHT22;4024;52.172;5.378;2023-05-10T06:43:16;15.80;99.90
7958;DHT22;4024;52.172;5.378;2023-05-10T06:45:42;15.80;99.90
7958;DHT22;4024;52.172;5.378;2023-05-10T06:48:08;15.80;99.90
7958;DHT22;4024;52.172;5.378;2023-05-10T06:50:33;15.90;99.90
7958;DHT22;4024;52.172;5.378;2023-05-10T06:53:00;15.90;99.90
7958;DHT22;4024;52.172;5.378;2023-05-10T06:55:25;15.90;99.90
7958;DHT22;4024;52.172;5.378;2023-05-10T06:57:51;15.90;99.90
7958;DHT22;4024;52.172;5.378;2023-05-10T07:00:18;15.90;99.90
7958;DHT22;4024;52.172;5.378;2023-05-10T07:02:43;15.90;99.90
7958;DHT22;4024;52.172;5.378;2023-05-10T07:05:09;15.90;99.90
7958;DHT22;4024;52.172;5.378;2023-05-10T07:07:35;15.90;99.90
7958;DHT22;4024;52.172;5.378;2023-05-10T07:10:01;15.90;99.90
7958;DHT22;4024;52.172;5.378;2023-05-10T07:12:27;15.90;99.90
7958;DHT22;4024;52.172;5.378;2023-05-10T07:14:52;15.90;99.90
7958;DHT22;4024;52.172;5.378;2023-05-10T07:17:18;15.90;99.90
7958;DHT22;4024;52.172;5.378;2023-05-10T07:19:44;15.90;99.90
7958;DHT22;4024;52.172;5.378;2023-05-10T07:22:09;15.90;99.90
7958;DHT22;4024;52.172;5.378;2023-05-10T07:24:35;15.90;99.90
7958;DHT22;4024;52.172;5.378;2023-05-10T07:27:01;15.90;99.90
7958;DHT22;4024;52.172;5.378;2023-05-10T07:29:27;16.00;99.90
7958;DHT22;4024;52.172;5.378;2023-05-10T07:31:52;16.00;99.90
7958;DHT22;4024;52.172;5.378;2023-05-10T07:34:18;16.00;99.90
7958;DHT22;4024;52.172;5.378;2023-05-10T07:36:44;16.00;99.90
7958;DHT22;4024;52.172;5.378;2023-05-10T07:39:09;16.00;99.90
7958;DHT22;4024;52.172;5.378;2023-05-10T07:41:35;16.00;99.90
7958;DHT22;4024;52.172;5.378;2023-05-10T07:44:03;16.10;99.90
7958;DHT22;4024;52.172;5.378;2023-05-10T07:46:29;16.10;99.90
7958;DHT22;4024;52.172;5.378;2023-05-10T07:48:54;16.20;99.90
7958;DHT22;4024;52.172;5.378;2023-05-10T07:51:20;16.30;99.90
7958;DHT22;4024;52.172;5.378;2023-05-10T07:53:46;16.30;99.90
7958;DHT22;4024;52.172;5.378;2023-05-10T07:56:26;16.30;99.90
7958;DHT22;4024;52.172;5.378;2023-05-10T07:58:57;16.40;99.90
7958;DHT22;4024;52.172;5.378;2023-05-10T08:01:23;16.40;99.90
7958;DHT22;4024;52.172;5.378;2023-05-10T08:03:49;16.50;99.90
7958;DHT22;4024;52.172;5.378;2023-05-10T08:06:17;16.50;99.90
7958;DHT22;4024;52.172;5.378;2023-05-10T08:08:43;16.50;99.90
7958;DHT22;4024;52.172;5.378;2023-05-10T08:11:10;16.40;99.90
7958;DHT22;4024;52.172;5.378;2023-05-10T08:13:36;16.50;99.90
7958;DHT22;4024;52.172;5.378;2023-05-10T08:16:01;16.40;99.90
7958;DHT22;4024;52.172;5.378;2023-05-10T08:18:27;16.40;99.90
7958;DHT22;4024;52.172;5.378;2023-05-10T08:20:53;16.40;99.90
7958;DHT22;4024;52.172;5.378;2023-05-10T08:23:19;16.40;99.90
7958;DHT22;4024;52.172;5.378;2023-05-10T08:25:44;16.40;99.90
7958;DHT22;4024;52.172;5.378;2023-05-10T08:28:10;16.30;99.90
7958;DHT22;4024;52.172;5.378;2023-05-10T08:30:35;16.40;99.90
7958;DHT22;4024;52.172;5.378;2023-05-10T08:33:01;16.40;99.90
7958;DHT22;4024;52.172;5.378;2023-05-10T08:35:27;16.30;99.90
7958;DHT22;4024;52.172;5.378;2023-05-10T08:37:52;16.40;99.90
7958;DHT22;4024;52.172;5.378;2023-05-10T08:40:19;16.40;99.90
7958;DHT22;4024;52.172;5.378;2023-05-10T08:42:53;16.30;99.90
7958;DHT22;4024;52.172;5.378;2023-05-10T08:45:22;16.40;99.90
7958;DHT22;4024;52.172;5.378;2023-05-10T08:47:48;16.40;99.90
7958;DHT22;4024;52.172;5.378;2023-05-10T08:50:15;16.40;99.90
7958;DHT22;4024;52.172;5.378;2023-05-10T08:52:41;16.50;99.90
7958;DHT22;4024;52.172;5.378;2023-05-10T08:55:07;16.60;99.90
7958;DHT22;4024;52.172;5.378;2023-05-10T08:57:33;16.60;99.90
7958;DHT22;4024;52.172;5.378;2023-05-10T09:00:00;16.70;99.90
7958;DHT22;4024;52.172;5.378;2023-05-10T09:02:26;16.80;99.90
7958;DHT22;4024;52.172;5.378;2023-05-10T09:04:52;16.80;99.90
7958;DHT22;4024;52.172;5.378;2023-05-10T09:07:18;16.90;99.90
7958;DHT22;4024;52.172;5.378;2023-05-10T09:09:45;17.00;99.90
7958;DHT22;4024;52.172;5.378;2023-05-10T09:12:12;17.00;99.90
7958;DHT22;4024;52.172;5.378;2023-05-10T09:14:40;17.10;99.90
7958;DHT22;4024;52.172;5.378;2023-05-10T09:17:07;17.20;99.90
7958;DHT22;4024;52.172;5.378;2023-05-10T09:19:32;17.30;99.90
7958;DHT22;4024;52.172;5.378;2023-05-10T09:21:58;17.40;99.90
7958;DHT22;4024;52.172;5.378;2023-05-10T09:24:26;17.50;99.90
7958;DHT22;4024;52.172;5.378;2023-05-10T09:26:57;17.60;99.90
7958;DHT22;4024;52.172;5.378;2023-05-10T09:29:23;17.70;99.90
7958;DHT22;4024;52.172;5.378;2023-05-10T09:31:51;17.90;99.90
7958;DHT22;4024;52.172;5.378;2023-05-10T09:34:35;18.00;99.90
7958;DHT22;4024;52.172;5.378;2023-05-10T09:37:05;18.10;99.90
7958;DHT22;4024;52.172;5.378;2023-05-10T09:39:35;18.20;99.90
7958;DHT22;4024;52.172;5.378;2023-05-10T09:42:06;18.30;99.90
7958;DHT22;4024;52.172;5.378;2023-05-10T09:44:33;18.40;99.90
7958;DHT22;4024;52.172;5.378;2023-05-10T09:46:59;18.50;99.90
7958;DHT22;4024;52.172;5.378;2023-05-10T09:49:25;18.60;99.90
7958;DHT22;4024;52.172;5.378;2023-05-10T09:52:03;18.70;99.90
7958;DHT22;4024;52.172;5.378;2023-05-10T09:54:29;18.70;99.90
7958;DHT22;4024;52.172;5.378;2023-05-10T09:56:55;18.80;99.90
7958;DHT22;4024;52.172;5.378;2023-05-10T09:59:21;18.70;99.90
7958;DHT22;4024;52.172;5.378;2023-05-10T10:01:55;18.80;99.90
7958;DHT22;4024;52.172;5.378;2023-05-10T10:04:21;18.70;99.90
7958;DHT22;4024;52.172;5.378;2023-05-10T10:06:47;18.70;99.90
7958;DHT22;4024;52.172;5.378;2023-05-10T10:09:23;18.60;99.90
7958;DHT22;4024;52.172;5.378;2023-05-10T10:11:49;18.60;99.90
7958;DHT22;4024;52.172;5.378;2023-05-10T10:14:19;18.60;99.90
7958;DHT22;4024;52.172;5.378;2023-05-10T10:16:45;18.70;99.90
7958;DHT22;4024;52.172;5.378;2023-05-10T10:19:12;18.70;99.90
7958;DHT22;4024;52.172;5.378;2023-05-10T10:21:38;18.80;99.90
7958;DHT22;4024;52.172;5.378;2023-05-10T10:24:03;18.80;99.90
7958;DHT22;4024;52.172;5.378;2023-05-10T10:26:33;18.80;99.90
7958;DHT22;4024;52.172;5.378;2023-05-10T10:29:19;18.80;99.90
7958;DHT22;4024;52.172;5.378;2023-05-10T10:32:17;18.70;99.90
7958;DHT22;4024;52.172;5.378;2023-05-10T10:34:45;18.80;99.90
7958;DHT22;4024;52.172;5.378;2023-05-10T10:37:11;18.80;99.90
7958;DHT22;4024;52.172;5.378;2023-05-10T10:39:36;18.70;99.90
7958;DHT22;4024;52.172;5.378;2023-05-10T10:42:02;18.60;99.90
7958;DHT22;4024;52.172;5.378;2023-05-10T10:55:13;18.60;99.90
7958;DHT22;4024;52.172;5.378;2023-05-10T10:57:53;18.70;99.90
7958;DHT22;4024;52.172;5.378;2023-05-10T11:00:32;18.70;99.90
7958;DHT22;4024;52.172;5.378;2023-05-10T11:03:04;18.80;99.90
7958;DHT22;4024;52.172;5.378;2023-05-10T11:08:28;18.90;99.90
7958;DHT22;4024;52.172;5.378;2023-05-10T11:11:03;18.90;99.90
7958;DHT22;4024;52.172;5.378;2023-05-10T11:13:44;19.00;99.90
7958;DHT22;4024;52.172;5.378;2023-05-10T11:16:19;19.00;99.90
7958;DHT22;4024;52.172;5.378;2023-05-10T11:19:03;19.10;99.90
7958;DHT22;4024;52.172;5.378;2023-05-10T11:21:30;19.10;99.90
7958;DHT22;4024;52.172;5.378;2023-05-10T11:23:57;19.10;99.90
7958;DHT22;4024;52.172;5.378;2023-05-10T11:26:33;19.10;99.90
7958;DHT22;4024;52.172;5.378;2023-05-10T11:28:59;19.20;99.90
7958;DHT22;4024;52.172;5.378;2023-05-10T11:31:27;19.30;99.90
7958;DHT22;4024;52.172;5.378;2023-05-10T11:33:54;19.30;99.90
7958;DHT22;4024;52.172;5.378;2023-05-10T11:36:34;19.30;99.90
7958;DHT22;4024;52.172;5.378;2023-05-10T11:39:00;19.40;99.90
7958;DHT22;4024;52.172;5.378;2023-05-10T11:41:28;19.40;99.90
7958;DHT22;4024;52.172;5.378;2023-05-10T11:43:55;19.50;99.90
7958;DHT22;4024;52.172;5.378;2023-05-10T11:46:26;19.50;99.90
7958;DHT22;4024;52.172;5.378;2023-05-10T11:48:54;19.60;99.90
7958;DHT22;4024;52.172;5.378;2023-05-10T11:51:21;19.60;99.90
7958;DHT22;4024;52.172;5.378;2023-05-10T11:53:47;19.60;99.90
7958;DHT22;4024;52.172;5.378;2023-05-10T11:56:13;19.60;99.90
7958;DHT22;4024;52.172;5.378;2023-05-10T11:58:39;19.60;99.90
7958;DHT22;4024;52.172;5.378;2023-05-10T12:01:07;19.70;99.90
7958;DHT22;4024;52.172;5.378;2023-05-10T12:03:33;19.70;99.90
7958;DHT22;4024;52.172;5.378;2023-05-10T12:05:59;19.60;99.90
7958;DHT22;4024;52.172;5.378;2023-05-10T12:08:28;19.60;99.90
7958;DHT22;4024;52.172;5.378;2023-05-10T12:11:03;19.60;99.90
7958;DHT22;4024;52.172;5.378;2023-05-10T12:13:29;19.60;99.90
7958;DHT22;4024;52.172;5.378;2023-05-10T12:15:58;19.60;99.90
7958;DHT22;4024;52.172;5.378;2023-05-10T12:18:24;19.60;99.90
7958;DHT22;4024;52.172;5.378;2023-05-10T12:20:52;19.60;99.90
7958;DHT22;4024;52.172;5.378;2023-05-10T12:23:19;19.60;99.90
7958;DHT22;4024;52.172;5.378;2023-05-10T12:25:45;19.60;99.90
7958;DHT22;4024;52.172;5.378;2023-05-10T12:28:11;19.70;99.90
7958;DHT22;4024;52.172;5.378;2023-05-10T12:30:37;19.70;99.90
7958;DHT22;4024;52.172;5.378;2023-05-10T12:33:13;19.80;99.90
7958;DHT22;4024;52.172;5.378;2023-05-10T12:35:52;19.90;99.90
7958;DHT22;4024;52.172;5.378;2023-05-10T12:41:04;20.10;99.90
7958;DHT22;4024;52.172;5.378;2023-05-10T12:43:29;20.30;99.90
7958;DHT22;4024;52.172;5.378;2023-05-10T12:45:55;20.50;99.90
7958;DHT22;4024;52.172;5.378;2023-05-10T12:48:22;20.50;99.90
7958;DHT22;4024;52.172;5.378;2023-05-10T12:50:48;20.50;99.90
7958;DHT22;4024;52.172;5.378;2023-05-10T12:53:14;20.70;99.90
7958;DHT22;4024;52.172;5.378;2023-05-10T12:55:43;20.60;99.90
7958;DHT22;4024;52.172;5.378;2023-05-10T12:58:09;20.70;99.90
7958;DHT22;4024;52.172;5.378;2023-05-10T13:00:35;20.70;99.90
7958;DHT22;4024;52.172;5.378;2023-05-10T13:03:04;20.70;99.90
7958;DHT22;4024;52.172;5.378;2023-05-10T13:05:32;20.80;99.90
7958;DHT22;4024;52.172;5.378;2023-05-10T13:08:02;20.70;99.90
7958;DHT22;4024;52.172;5.378;2023-05-10T13:10:31;20.70;99.90
7958;DHT22;4024;52.172;5.378;2023-05-10T13:12:58;20.70;99.90
7958;DHT22;4024;52.172;5.378;2023-05-10T13:15:24;20.70;99.90
7958;DHT22;4024;52.172;5.378;2023-05-10T13:17:50;20.70;99.90
7958;DHT22;4024;52.172;5.378;2023-05-10T13:20:15;20.60;99.90
7958;DHT22;4024;52.172;5.378;2023-05-10T13:22:42;20.60;99.90
7958;DHT22;4024;52.172;5.378;2023-05-10T13:25:08;20.50;99.90
7958;DHT22;4024;52.172;5.378;2023-05-10T13:27:34;20.40;99.90
7958;DHT22;4024;52.172;5.378;2023-05-10T13:29:59;20.30;99.90
7958;DHT22;4024;52.172;5.378;2023-05-10T13:32:25;20.20;99.90
7958;DHT22;4024;52.172;5.378;2023-05-10T13:34:51;20.10;99.90
7958;DHT22;4024;52.172;5.378;2023-05-10T13:37:17;20.00;99.90
7958;DHT22;4024;52.172;5.378;2023-05-10T13:39:42;19.90;99.90
7958;DHT22;4024;52.172;5.378;2023-05-10T13:42:08;19.80;99.90
7958;DHT22;4024;52.172;5.378;2023-05-10T13:44:34;19.70;99.90
7958;DHT22;4024;52.172;5.378;2023-05-10T13:46:59;19.60;99.90
7958;DHT22;4024;52.172;5.378;2023-05-10T13:49:25;19.50;99.90
7958;DHT22;4024;52.172;5.378;2023-05-10T13:51:51;19.40;99.90
7958;DHT22;4024;52.172;5.378;2023-05-10T13:54:17;19.30;99.90
7958;DHT22;4024;52.172;5.378;2023-05-10T13:56:45;19.20;99.90
7958;DHT22;4024;52.172;5.378;2023-05-10T13:59:12;19.10;99.90
7958;DHT22;4024;52.172;5.378;2023-05-10T14:01:39;19.10;99.90
7958;DHT22;4024;52.172;5.378;2023-05-10T14:04:06;19.00;99.90
7958;DHT22;4024;52.172;5.378;2023-05-10T14:06:33;19.10;99.90
7958;DHT22;4024;52.172;5.378;2023-05-10T14:08:59;19.00;99.90
7958;DHT22;4024;52.172;5.378;2023-05-10T14:11:26;18.90;99.90
7958;DHT22;4024;52.172;5.378;2023-05-10T14:13:51;18.90;99.90
7958;DHT22;4024;52.172;5.378;2023-05-10T14:16:17;18.70;99.90
7958;DHT22;4024;52.172;5.378;2023-05-10T14:18:43;18.70;99.90
7958;DHT22;4024;52.172;5.378;2023-05-10T14:21:08;18.70;99.90
7958;DHT22;4024;52.172;5.378;2023-05-10T14:23:34;18.60;99.90
7958;DHT22;4024;52.172;5.378;2023-05-10T14:25:59;18.50;99.90
7958;DHT22;4024;52.172;5.378;2023-05-10T14:28:25;18.50;99.90
7958;DHT22;4024;52.172;5.378;2023-05-10T14:30:51;18.50;99.90
7958;DHT22;4024;52.172;5.378;2023-05-10T14:33:17;18.40;99.90
7958;DHT22;4024;52.172;5.378;2023-05-10T14:35:42;18.30;99.90
7958;DHT22;4024;52.172;5.378;2023-05-10T14:38:08;18.40;99.90
7958;DHT22;4024;52.172;5.378;2023-05-10T14:40:34;18.30;99.90
7958;DHT22;4024;52.172;5.378;2023-05-10T14:43:00;18.30;99.90
7958;DHT22;4024;52.172;5.378;2023-05-10T14:45:26;18.30;99.90
7958;DHT22;4024;52.172;5.378;2023-05-10T14:47:51;18.20;99.90
7958;DHT22;4024;52.172;5.378;2023-05-10T14:50:17;18.30;99.90
7958;DHT22;4024;52.172;5.378;2023-05-10T14:52:43;18.20;99.90
7958;DHT22;4024;52.172;5.378;2023-05-10T14:55:09;18.20;99.90
7958;DHT22;4024;52.172;5.378;2023-05-10T14:57:35;18.20;99.90
7958;DHT22;4024;52.172;5.378;2023-05-10T15:00:03;18.20;99.90
7958;DHT22;4024;52.172;5.378;2023-05-10T15:02:30;18.20;99.90
7958;DHT22;4024;52.172;5.378;2023-05-10T15:04:55;18.20;99.90
7958;DHT22;4024;52.172;5.378;2023-05-10T15:07:24;18.20;99.90
7958;DHT22;4024;52.172;5.378;2023-05-10T15:09:51;18.20;99.90
7958;DHT22;4024;52.172;5.378;2023-05-10T15:12:18;18.30;99.90
7958;DHT22;4024;52.172;5.378;2023-05-10T15:14:44;18.30;99.90
7958;DHT22;4024;52.172;5.378;2023-05-10T15:17:10;18.30;99.90
7958;DHT22;4024;52.172;5.378;2023-05-10T15:19:35;18.40;99.90
7958;DHT22;4024;52.172;5.378;2023-05-10T15:22:02;18.40;99.90
7958;DHT22;4024;52.172;5.378;2023-05-10T15:24:33;18.40;99.90
7958;DHT22;4024;52.172;5.378;2023-05-10T15:26:59;18.50;99.90
7958;DHT22;4024;52.172;5.378;2023-05-10T15:29:26;18.50;99.90
7958;DHT22;4024;52.172;5.378;2023-05-10T15:31:51;18.60;99.90
7958;DHT22;4024;52.172;5.378;2023-05-10T15:34:18;18.70;99.90
7958;DHT22;4024;52.172;5.378;2023-05-10T15:36:44;18.70;99.90
7958;DHT22;4024;52.172;5.378;2023-05-10T15:39:11;18.70;99.90
7958;DHT22;4024;52.172;5.378;2023-05-10T15:41:37;18.80;99.90
7958;DHT22;4024;52.172;5.378;2023-05-10T15:44:04;18.90;99.90
7958;DHT22;4024;52.172;5.378;2023-05-10T15:46:32;18.90;99.90
7958;DHT22;4024;52.172;5.378;2023-05-10T15:48:59;19.00;99.90
7958;DHT22;4024;52.172;5.378;2023-05-10T15:51:25;19.00;99.90
7958;DHT22;4024;52.172;5.378;2023-05-10T15:53:51;19.10;99.90
7958;DHT22;4024;52.172;5.378;2023-05-10T15:56:20;19.20;99.90
7958;DHT22;4024;52.172;5.378;2023-05-10T15:58:46;19.20;99.90
7958;DHT22;4024;52.172;5.378;2023-05-10T16:01:12;19.30;99.90
7958;DHT22;4024;52.172;5.378;2023-05-10T16:03:38;19.40;99.90
7958;DHT22;4024;52.172;5.378;2023-05-10T16:06:03;19.40;99.90
7958;DHT22;4024;52.172;5.378;2023-05-10T16:08:29;19.40;99.90
7958;DHT22;4024;52.172;5.378;2023-05-10T16:10:55;19.40;99.90
7958;DHT22;4024;52.172;5.378;2023-05-10T16:13:22;19.50;99.90
7958;DHT22;4024;52.172;5.378;2023-05-10T16:15:48;19.50;99.90
7958;DHT22;4024;52.172;5.378;2023-05-10T16:18:13;19.50;99.90
7958;DHT22;4024;52.172;5.378;2023-05-10T16:20:40;19.50;99.90
7958;DHT22;4024;52.172;5.378;2023-05-10T16:23:06;19.60;99.90
7958;DHT22;4024;52.172;5.378;2023-05-10T16:25:32;19.50;99.90
7958;DHT22;4024;52.172;5.378;2023-05-10T16:27:59;19.50;99.90
7958;DHT22;4024;52.172;5.378;2023-05-10T16:30:25;19.50;99.90
7958;DHT22;4024;52.172;5.378;2023-05-10T16:32:57;19.50;99.90
7958;DHT22;4024;52.172;5.378;2023-05-10T16:35:23;19.50;99.90